Time;durP1;ratioP1;P1;durP2;ratioP2;P2;SDS_P1;SDS_P2;PMS_P1;PMS_P2;Temp;Humidity;BMP_temperature;BMP_pressure;BME280_temperature;BME280_humidity;BME280_pressure;Samples;Min_cycle;Max_cycle;Signal;HPM_P1;HPM_P2
2024/04/08 00:00:10;;;;;;;8.38;2.15;;;;;;;13.04;96.88;101001.78;10467324;28;20021;-74
2024/04/08 00:05:11;;;;;;;4.68;2.53;;;;;;;13.04;96.53;101017.25;10467291;28;20116;-74
2024/04/08 00:10:11;;;;;;;12.57;2.95;;;;;;;13.14;97.99;101008.66;10483136;28;20447;-74
2024/04/08 00:15:12;;;;;;;11.45;2.53;;;;;;;13.29;99.71;101001.16;10469008;28;20100;-77
2024/04/08 00:20:12;;;;;;;10.88;3.60;;;;;;;13.37;98.59;100983.75;10468262;28;20389;-72
2024/04/08 00:25:13;;;;;;;7.38;3.13;;;;;;;13.43;98.33;100985.63;10465286;28;20044;-73
2024/04/08 00:30:13;;;;;;;7.35;3.00;;;;;;;13.47;99.63;100990.44;10464999;28;20041;-74
2024/04/08 00:35:14;;;;;;;19.00;3.22;;;;;;;13.45;100.00;100981.63;10463410;28;20131;-74
2024/04/08 00:40:14;;;;;;;7.25;2.83;;;;;;;13.44;100.00;100976.44;10464038;28;20032;-74
2024/04/08 00:45:15;;;;;;;4.53;2.17;;;;;;;13.43;99.11;100977.44;10463643;28;20060;-74
2024/04/08 00:50:15;;;;;;;12.05;2.92;;;;;;;13.47;98.02;100992.31;10462676;28;20108;-74
2024/04/08 00:55:16;;;;;;;8.65;3.85;;;;;;;13.47;99.49;100978.72;10447739;28;20043;-74
2024/04/08 01:00:16;;;;;;;8.98;2.30;;;;;;;13.44;97.67;100971.81;10464348;28;20151;-74
2024/04/08 01:05:17;;;;;;;8.82;2.55;;;;;;;13.43;96.56;100972.88;10445692;28;20036;-75
2024/04/08 01:10:17;;;;;;;3.60;1.90;;;;;;;13.35;97.02;100983.97;10462368;28;20098;-74
2024/04/08 01:15:18;;;;;;;5.35;3.50;;;;;;;13.24;96.48;100977.31;10463520;28;20036;-75
2024/04/08 01:20:19;;;;;;;6.65;2.47;;;;;;;13.13;99.27;100972.50;10463218;28;20052;-76
2024/04/08 01:25:19;;;;;;;9.15;2.92;;;;;;;13.10;99.96;100978.34;10462975;28;20052;-73
2024/04/08 01:30:21;;;;;;;10.57;2.75;;;;;;;13.09;99.58;100960.38;10459400;28;20033;-75
2024/04/08 01:35:21;;;;;;;5.43;2.47;;;;;;;12.94;97.75;100941.59;10460383;28;20025;-74
2024/04/08 01:40:22;;;;;;;2.83;2.00;;;;;;;12.86;97.81;100955.41;10443617;28;20036;-75
2024/04/08 01:45:22;;;;;;;10.10;2.20;;;;;;;12.74;97.56;100949.78;10461691;28;20051;-72
2024/04/08 01:50:23;;;;;;;6.43;2.13;;;;;;;12.56;98.22;100947.69;10459463;28;20056;-74
2024/04/08 01:55:23;;;;;;;10.52;3.40;;;;;;;12.45;99.66;100947.50;10459242;28;20087;-74
2024/04/08 02:00:24;;;;;;;4.13;2.30;;;;;;;12.27;100.00;100939.94;10460576;28;20418;-74
2024/04/08 02:05:24;;;;;;;6.15;2.47;;;;;;;12.03;100.00;100925.94;10461818;28;20050;-74
2024/04/08 02:10:25;;;;;;;8.77;3.30;;;;;;;11.99;100.00;100934.69;10462057;28;20025;-74
2024/04/08 02:15:25;;;;;;;4.75;2.33;;;;;;;11.98;100.00;100946.59;10443749;28;20402;-75
2024/04/08 02:20:26;;;;;;;9.60;2.83;;;;;;;12.20;100.00;100952.69;10462284;28;20053;-74
2024/04/08 02:25:27;;;;;;;6.95;2.80;;;;;;;12.44;100.00;100952.06;10461756;28;20587;-74
2024/04/08 02:30:27;;;;;;;9.32;3.15;;;;;;;12.68;100.00;100933.47;10460633;28;20040;-74
2024/04/08 02:35:27;;;;;;;6.80;2.40;;;;;;;12.74;100.00;100913.63;10461483;28;20476;-73
2024/04/08 02:40:28;;;;;;;2.03;1.65;;;;;;;12.74;100.00;100922.59;10460576;28;20036;-74
2024/04/08 02:45:28;;;;;;;3.40;2.42;;;;;;;12.83;100.00;100927.78;10443003;28;20037;-73
2024/04/08 02:50:29;;;;;;;9.55;1.90;;;;;;;12.93;100.00;100930.94;10462828;28;20480;-73
2024/04/08 02:55:29;;;;;;;6.55;2.33;;;;;;;13.03;100.00;100923.16;10461413;28;20170;-74
2024/04/08 03:00:29;;;;;;;7.68;2.88;;;;;;;13.09;100.00;100914.16;10463519;28;20072;-73
2024/04/08 03:05:30;;;;;;;7.68;3.58;;;;;;;12.99;100.00;100916.50;10446595;28;20440;-73
2024/04/08 03:10:31;;;;;;;9.68;3.22;;;;;;;12.89;100.00;100908.78;10460479;28;20025;-74
2024/04/08 03:15:31;;;;;;;6.30;1.80;;;;;;;12.79;100.00;100906.50;10465091;28;20021;-74
2024/04/08 03:20:32;;;;;;;6.85;3.03;;;;;;;12.57;100.00;100889.59;10447497;28;20111;-74
2024/04/08 03:25:32;;;;;;;12.10;2.85;;;;;;;12.32;100.00;100883.16;10461358;28;20044;-74
2024/04/08 03:30:35;;;;;;;9.80;2.08;;;;;;;12.17;100.00;100877.09;10465330;28;20102;-73
2024/04/08 03:35:35;;;;;;;6.30;3.13;;;;;;;12.07;100.00;100883.75;10468812;28;20032;-74
2024/04/08 03:40:35;;;;;;;8.63;4.00;;;;;;;11.98;100.00;100870.59;10468432;28;20032;-74
2024/04/08 03:45:40;;;;;;;5.00;3.15;;;;;;;11.89;100.00;100856.41;10468445;28;20388;-74
2024/04/08 03:50:40;;;;;;;14.30;3.70;;;;;;;11.74;100.00;100853.00;10466453;28;20124;-74
2024/04/08 03:55:41;;;;;;;7.00;3.35;;;;;;;11.60;100.00;100841.31;10466790;28;20124;-74
2024/04/08 04:00:41;;;;;;;3.92;2.25;;;;;;;11.58;100.00;100840.66;10449832;28;20037;-74
2024/04/08 04:05:41;;;;;;;6.05;3.13;;;;;;;11.58;100.00;100854.22;10464401;28;20025;-74
2024/04/08 04:10:44;;;;;;;6.93;3.20;;;;;;;11.72;100.00;100872.22;10464584;28;20037;-74
2024/04/08 04:15:44;;;;;;;6.10;4.13;;;;;;;11.93;100.00;100859.53;10467994;28;20039;-74
2024/04/08 04:20:45;;;;;;;10.20;5.22;;;;;;;12.10;100.00;100869.78;10465356;28;20079;-76
2024/04/08 04:25:53;;;;;;;8.13;3.80;;;;;;;12.31;100.00;100873.31;10467471;28;20410;-74
2024/04/08 04:30:57;;;;;;;5.45;3.83;;;;;;;12.48;100.00;100892.75;10466669;28;20025;-77
2024/04/08 04:35:58;;;;;;;9.93;5.03;;;;;;;12.62;100.00;100896.28;10467164;28;20054;-74
2024/04/08 04:41:05;;;;;;;6.80;4.95;;;;;;;12.71;100.00;100898.56;10468023;28;20029;-77
2024/04/08 04:46:06;;;;;;;8.85;5.20;;;;;;;12.74;100.00;100902.75;10447826;28;20106;-73
2024/04/08 04:51:06;;;;;;;6.75;5.25;;;;;;;12.79;100.00;100922.81;10479423;28;20170;-75
2024/04/08 04:56:06;;;;;;;8.90;7.05;;;;;;;12.80;100.00;100929.06;10463463;28;20045;-75
2024/04/08 05:01:07;;;;;;;8.98;7.05;;;;;;;12.77;100.00;100921.34;10464976;28;20032;-74
2024/04/08 05:06:07;;;;;;;5.82;5.32;;;;;;;12.74;100.00;100922.59;10460741;28;20090;-73
2024/04/08 05:11:08;;;;;;;6.50;5.90;;;;;;;12.78;100.00;100931.16;10459080;28;20529;-73
2024/04/08 05:16:11;;;;;;;9.07;6.60;;;;;;;12.78;100.00;100944.75;10458241;28;20040;-75
2024/04/08 05:21:11;;;;;;;11.27;6.22;;;;;;;12.74;100.00;100919.06;10461276;28;20045;-73
2024/04/08 05:26:12;;;;;;;8.50;7.70;;;;;;;12.66;100.00;100911.09;10465923;28;20025;-76
2024/04/08 05:31:13;;;;;;;9.45;6.90;;;;;;;12.59;100.00;100905.69;10463711;28;20031;-75
2024/04/08 05:36:13;;;;;;;15.00;7.95;;;;;;;12.68;100.00;100914.47;10456386;28;20037;-75
2024/04/08 05:41:15;;;;;;;12.02;8.23;;;;;;;12.92;100.00;100921.94;10458768;28;20437;-75
2024/04/08 05:46:18;;;;;;;9.13;7.57;;;;;;;13.19;100.00;100928.13;10458970;28;20029;-74
2024/04/08 05:51:19;;;;;;;18.73;7.63;;;;;;;13.37;100.00;100913.03;10457704;28;20133;-74
2024/04/08 05:56:20;;;;;;;10.23;6.97;;;;;;;13.82;100.00;100927.47;10457523;28;20053;-75
2024/04/08 06:01:20;;;;;;;7.88;6.47;;;;;;;14.43;100.00;100928.72;10456370;28;20032;-74
2024/04/08 06:06:20;;;;;;;12.85;6.60;;;;;;;14.56;100.00;100916.91;10457986;28;20060;-75
2024/04/08 06:11:21;;;;;;;10.18;7.20;;;;;;;14.59;100.00;100917.28;10456896;28;20017;-75
2024/04/08 06:16:22;;;;;;;7.93;7.13;;;;;;;15.17;100.00;100945.25;10456330;28;20033;-74
2024/04/08 06:21:22;;;;;;;8.30;6.40;;;;;;;15.33;100.00;100941.91;10454783;28;20091;-75
2024/04/08 06:26:22;;;;;;;8.13;6.10;;;;;;;15.94;100.00;100949.13;10457952;28;20037;-76
2024/04/08 06:31:23;;;;;;;6.75;4.75;;;;;;;15.70;100.00;100937.28;10457372;28;20062;-74
2024/04/08 06:36:23;;;;;;;11.75;6.03;;;;;;;15.28;100.00;100922.66;10454605;28;20037;-74
2024/04/08 06:41:23;;;;;;;6.70;4.97;;;;;;;15.31;100.00;100911.28;10457023;28;20049;-74
2024/04/08 06:46:24;;;;;;;8.25;5.47;;;;;;;15.75;100.00;100915.56;10455861;28;20083;-74
2024/04/08 06:51:24;;;;;;;6.38;3.88;;;;;;;15.69;100.00;100926.56;10453733;28;20029;-75
2024/04/08 06:56:25;;;;;;;6.53;4.70;;;;;;;15.51;100.00;100930.16;10454837;28;20155;-75
2024/04/08 07:01:26;;;;;;;5.90;4.65;;;;;;;15.34;100.00;100919.84;10455616;28;20468;-73
2024/04/08 07:06:27;;;;;;;6.95;5.07;;;;;;;15.15;100.00;100931.81;10460671;28;20029;-76
2024/04/08 07:11:27;;;;;;;10.23;4.25;;;;;;;15.01;100.00;100933.88;10479688;28;20120;-76
2024/04/08 07:16:28;;;;;;;4.50;4.07;;;;;;;15.15;100.00;100931.81;10462177;28;20090;-75
2024/04/08 07:21:28;;;;;;;7.70;5.32;;;;;;;15.54;100.00;100937.88;10465294;28;20476;-74
2024/04/08 07:26:29;;;;;;;9.52;5.28;;;;;;;15.89;100.00;100921.69;10463866;28;20065;-75
2024/04/08 07:31:29;;;;;;;5.55;4.28;;;;;;;15.96;100.00;100927.88;10463195;28;20578;-74
2024/04/08 07:36:29;;;;;;;7.70;4.13;;;;;;;16.44;100.00;100907.78;10467680;28;20036;-74
2024/04/08 07:41:30;;;;;;;7.32;5.00;;;;;;;16.87;100.00;100883.91;10480340;28;20035;-75
2024/04/08 07:46:30;;;;;;;6.93;4.15;;;;;;;17.17;100.00;100873.63;10467215;28;20036;-75
2024/04/08 07:51:31;;;;;;;8.13;3.83;;;;;;;17.26;100.00;100860.41;10465186;28;20444;-74
2024/04/08 07:56:31;;;;;;;6.68;3.80;;;;;;;17.69;100.00;100845.34;10465416;28;20079;-74
2024/04/08 08:01:32;;;;;;;4.63;4.20;;;;;;;18.24;100.00;100855.63;10462473;28;20033;-74
2024/04/08 08:06:32;;;;;;;9.80;4.55;;;;;;;18.70;100.00;100847.28;10427238;28;20377;-75
2024/04/08 08:11:32;;;;;;;8.80;3.28;;;;;;;19.54;100.00;100863.44;10462089;28;20079;-75
2024/04/08 08:16:33;;;;;;;6.05;4.65;;;;;;;19.93;100.00;100871.56;10461152;28;20058;-75
2024/04/08 08:21:33;;;;;;;4.63;4.13;;;;;;;19.65;100.00;100870.72;10463362;28;20056;-74
2024/04/08 08:26:34;;;;;;;12.85;5.45;;;;;;;19.61;98.98;100875.06;10462614;28;20040;-73
2024/04/08 08:31:34;;;;;;;9.75;5.53;;;;;;;19.23;97.91;100865.00;10461969;28;20075;-74
2024/04/08 08:36:35;;;;;;;6.35;4.43;;;;;;;18.73;99.30;100868.72;10462796;28;20056;-74
2024/04/08 08:41:35;;;;;;;7.10;6.40;;;;;;;19.59;100.00;100866.25;10461979;28;20036;-73
2024/04/08 08:46:35;;;;;;;7.60;5.03;;;;;;;20.12;95.09;100850.00;10443574;28;20131;-74
2024/04/08 08:51:36;;;;;;;13.90;5.70;;;;;;;20.31;89.63;100850.44;10443971;28;20059;-74
2024/04/08 08:56:36;;;;;;;5.10;4.60;;;;;;;20.80;83.72;100852.97;10462813;28;20048;-74
2024/04/08 09:01:37;;;;;;;8.73;4.75;;;;;;;20.71;81.44;100832.56;10462238;28;20079;-76
2024/04/08 09:06:38;;;;;;;4.00;3.42;;;;;;;20.65;84.02;100824.28;10465301;28;20040;-73
2024/04/08 09:11:45;;;;;;;2.88;2.67;;;;;;;20.83;75.39;100823.00;10458508;28;20538;-74
2024/04/08 09:16:48;;;;;;;5.47;4.25;;;;;;;20.25;73.86;100830.31;10441870;28;20064;-74
2024/04/08 09:21:48;;;;;;;4.65;4.10;;;;;;;19.51;76.75;100845.56;10461004;28;20483;-74
2024/04/08 09:26:51;;;;;;;3.70;2.72;;;;;;;18.91;81.18;100857.47;10458525;28;20032;-74
2024/04/08 09:31:52;;;;;;;4.25;3.15;;;;;;;18.16;86.98;100830.56;10461308;28;20352;-73
2024/04/08 09:36:52;;;;;;;6.05;4.28;;;;;;;18.22;89.44;100843.25;10459566;28;20029;-76
2024/04/08 09:41:55;;;;;;;8.32;3.60;;;;;;;17.99;91.14;100831.38;10460932;28;20025;-73
2024/04/08 09:46:55;;;;;;;4.82;3.33;;;;;;;17.80;91.23;100829.94;10459788;28;20078;-73
2024/04/08 09:51:56;;;;;;;11.98;3.72;;;;;;;17.61;91.23;100823.81;10439965;28;20445;-76
2024/04/08 09:57:02;;;;;;;7.95;3.13;;;;;;;17.31;94.19;100824.91;10439452;28;20070;-74
2024/04/08 10:02:02;;;;;;;7.22;4.50;;;;;;;17.34;97.71;100851.81;10457423;28;20104;-75
2024/04/08 10:07:05;;;;;;;8.27;2.97;;;;;;;17.74;97.08;100839.13;10455638;28;20120;-73
2024/04/08 10:12:08;;;;;;;3.20;2.72;;;;;;;17.78;94.09;100832.94;10457269;28;20028;-74
2024/04/08 10:17:08;;;;;;;3.17;2.88;;;;;;;17.91;92.15;100840.00;10455852;28;20039;-74
2024/04/08 10:22:10;;;;;;;7.18;3.58;;;;;;;17.99;92.59;100836.03;10455760;28;20043;-76
2024/04/08 10:27:11;;;;;;;2.88;2.58;;;;;;;18.38;89.41;100828.72;10438328;28;20043;-74
2024/04/08 10:32:12;;;;;;;4.10;3.05;;;;;;;18.56;90.77;100817.44;10438735;28;20025;-75
2024/04/08 10:37:13;;;;;;;5.47;3.83;;;;;;;18.32;nan;100822.31;10455848;28;20029;-76
2024/04/08 10:42:18;;;;;;;4.60;2.95;;;;;;;17.98;89.82;100818.75;10438091;28;20040;-74
2024/04/08 10:47:19;;;;;;;3.70;2.63;;;;;;;17.84;92.89;100801.00;10456147;28;20067;-76
2024/04/08 10:52:19;;;;;;;4.43;2.55;;;;;;;18.12;90.86;100794.56;10456294;28;20025;-74
2024/04/08 10:57:19;;;;;;;2.03;1.88;;;;;;;18.44;91.38;100788.47;10454708;28;20119;-74
2024/04/08 11:02:20;;;;;;;2.35;2.00;;;;;;;19.15;87.67;100775.72;10457448;28;20457;-73
2024/04/08 11:07:20;;;;;;;2.17;2.00;;;;;;;19.93;83.46;100789.09;10456969;28;20398;-73
2024/04/08 11:12:21;;;;;;;2.20;2.10;;;;;;;20.14;75.65;100768.94;10441939;28;20025;-76
2024/04/08 11:17:25;;;;;;;4.88;2.45;;;;;;;19.75;76.87;100771.13;10456523;28;20029;-76
2024/04/08 11:22:28;;;;;;;3.58;2.97;;;;;;;19.17;81.20;100776.25;10454419;28;20364;-74
2024/04/08 11:27:28;;;;;;;8.10;3.80;;;;;;;18.79;84.38;100771.69;10455200;28;20028;-74
2024/04/08 11:32:29;;;;;;;5.68;4.22;;;;;;;18.40;88.17;100777.19;10455826;28;20526;-75
2024/04/08 11:37:31;;;;;;;9.32;4.43;;;;;;;18.33;92.39;100768.31;10454843;28;20040;-73
2024/04/08 11:42:31;;;;;;;4.07;3.78;;;;;;;18.98;89.87;100739.28;10454939;28;20037;-75
2024/04/08 11:47:32;;;;;;;6.50;4.18;;;;;;;19.35;89.06;100725.66;10454065;28;20028;-76
2024/04/08 11:52:33;;;;;;;5.10;4.60;;;;;;;19.34;87.62;100747.91;10460168;28;20029;-76
2024/04/08 11:57:33;;;;;;;7.75;4.65;;;;;;;19.23;86.89;100733.22;10462509;28;20060;-75
2024/04/08 12:02:34;;;;;;;6.28;5.68;;;;;;;19.62;86.91;100717.41;10461604;28;20029;-75
2024/04/08 12:07:34;;;;;;;9.18;4.97;;;;;;;19.91;84.78;100714.31;10461058;28;20102;-76
2024/04/08 12:12:38;;;;;;;11.52;5.85;;;;;;;20.17;85.07;100707.91;10460180;28;20032;-75
2024/04/08 12:17:38;;;;;;;5.88;5.28;;;;;;;20.13;83.34;100698.56;10462447;28;20053;-75
2024/04/08 12:22:40;;;;;;;5.22;4.78;;;;;;;19.96;81.95;100700.63;10462869;28;20037;-74
2024/04/08 12:27:40;;;;;;;5.88;4.45;;;;;;;20.27;80.27;100687.91;10461591;28;20033;-74
2024/04/08 12:32:41;;;;;;;4.55;3.53;;;;;;;20.54;76.36;100687.75;10461396;28;20029;-75
2024/04/08 12:37:41;;;;;;;4.03;3.63;;;;;;;21.31;75.72;100658.50;10443215;28;20346;-76
2024/04/08 12:42:42;;;;;;;4.95;3.40;;;;;;;20.84;73.50;100661.47;10445158;28;20025;-74
2024/04/08 12:47:43;;;;;;;10.60;4.07;;;;;;;20.78;77.07;100649.59;10460315;28;20037;-73
2024/04/08 12:52:43;;;;;;;4.10;3.47;;;;;;;20.97;76.75;100657.34;10460236;28;20472;-75
2024/04/08 12:57:43;;;;;;;2.92;2.53;;;;;;;20.86;76.75;100664.75;10460088;28;20121;-75
2024/04/08 13:02:44;;;;;;;3.25;2.20;;;;;;;21.53;72.82;100679.44;10459549;28;20021;-75
2024/04/08 13:07:44;;;;;;;3.25;2.72;;;;;;;21.07;68.87;100668.38;10459534;28;20040;-75
2024/04/08 13:12:44;;;;;;;3.22;2.55;;;;;;;20.31;72.34;100669.75;10457661;28;20029;-75
2024/04/08 13:17:45;;;;;;;2.20;2.08;;;;;;;20.05;77.04;100657.00;10458778;28;20365;-74
2024/04/08 13:22:45;;;;;;;8.13;3.22;;;;;;;20.53;77.44;100655.03;10458800;28;20021;-75
2024/04/08 13:27:46;;;;;;;7.57;2.97;;;;;;;20.56;75.76;100651.75;10457831;28;20476;-74
2024/04/08 13:32:46;;;;;;;4.43;3.22;;;;;;;20.23;76.71;100628.19;10458784;28;20368;-73
2024/04/08 13:37:46;;;;;;;5.20;3.30;;;;;;;20.43;78.64;100617.28;10458787;28;20114;-73
2024/04/08 13:42:47;;;;;;;3.47;2.70;;;;;;;20.65;76.30;100615.19;10456348;28;20032;-74
2024/04/08 13:47:47;;;;;;;2.90;2.70;;;;;;;20.63;76.46;100600.03;10457667;28;20453;-76
2024/04/08 13:52:48;;;;;;;9.32;2.60;;;;;;;20.30;76.69;100590.28;10457839;28;20025;-73
2024/04/08 13:57:48;;;;;;;2.67;2.42;;;;;;;20.34;79.44;100575.72;10456264;28;20147;-74
2024/04/08 14:02:48;;;;;;;3.05;2.35;;;;;;;20.63;78.71;100578.03;10457324;28;20033;-74
2024/04/08 14:07:49;;;;;;;2.08;1.98;;;;;;;20.68;77.47;100567.03;10457803;28;20435;-73
2024/04/08 14:12:49;;;;;;;6.38;2.47;;;;;;;20.58;76.06;100550.50;10456838;28;20062;-73
2024/04/08 14:17:50;;;;;;;2.33;2.22;;;;;;;20.38;77.96;100543.00;10458646;28;20052;-74
2024/04/08 14:22:52;;;;;;;2.13;2.03;;;;;;;20.60;77.86;100543.63;10455480;28;20025;-74
2024/04/08 14:27:52;;;;;;;1.33;1.27;;;;;;;21.12;78.31;100523.28;10460944;28;20075;-73
2024/04/08 14:32:52;;;;;;;3.88;2.22;;;;;;;22.22;71.03;100526.28;10466334;28;20044;-75
2024/04/08 14:39:06;;;;;;;2.03;1.92;;;;;;;22.40;66.90;100508.22;11389362;25;20326;-72
2024/04/08 14:44:07;;;;;;;1.38;1.33;;;;;;;22.05;67.87;100513.66;11388479;25;20006;-75
2024/04/08 14:49:07;;;;;;;2.03;1.75;;;;;;;22.53;69.07;100499.34;11387515;26;20030;-74
2024/04/08 14:54:08;;;;;;;4.72;1.95;;;;;;;21.85;68.00;100499.97;11387381;26;20370;-75
2024/04/08 14:59:08;;;;;;;4.22;2.20;;;;;;;21.26;70.80;100492.44;11386888;26;20037;-74
2024/04/08 15:04:10;;;;;;;3.65;2.30;;;;;;;21.05;71.72;100489.69;11389048;25;20046;-74
2024/04/08 15:09:10;;;;;;;2.67;2.47;;;;;;;21.02;73.45;100478.41;11388367;25;19997;-74
2024/04/08 15:14:11;;;;;;;1.58;1.52;;;;;;;20.71;72.45;100472.09;11385861;26;20041;-73
2024/04/08 15:19:11;;;;;;;1.70;1.60;;;;;;;20.12;75.94;100446.72;11356279;26;20569;-74
2024/04/08 15:24:13;;;;;;;14.88;2.10;;;;;;;19.84;78.39;100456.25;11388385;25;20439;-74
2024/04/08 15:29:13;;;;;;;1.73;1.60;;;;;;;19.64;81.31;100435.03;11387919;25;20074;-75
2024/04/08 15:34:14;;;;;;;2.28;2.05;;;;;;;19.40;84.59;100417.31;11387702;25;19998;-72
2024/04/08 15:39:14;;;;;;;3.50;2.47;;;;;;;19.23;88.59;100415.59;11388660;25;19990;-74
2024/04/08 15:44:15;;;;;;;11.27;2.38;;;;;;;19.21;90.15;100420.56;11386205;26;20008;-76
2024/04/08 15:49:16;;;;;;;3.33;2.30;;;;;;;19.11;91.78;100406.75;11360720;26;20077;-74
2024/04/08 15:54:16;;;;;;;2.22;1.67;;;;;;;18.99;93.75;100401.50;11356495;26;20485;-73
2024/04/08 15:59:17;;;;;;;2.53;2.10;;;;;;;18.98;94.10;100404.50;11356706;26;19994;-74
2024/04/08 16:04:17;;;;;;;2.92;2.08;;;;;;;18.85;95.82;100399.47;11355390;26;20006;-73
2024/04/08 16:09:18;;;;;;;8.38;2.17;;;;;;;18.74;99.03;100399.41;11355974;26;20086;-75
2024/04/08 16:14:18;;;;;;;6.25;3.00;;;;;;;18.77;99.55;100379.69;11352312;26;20005;-72
2024/04/08 16:19:19;;;;;;;4.70;2.63;;;;;;;18.76;100.00;100378.03;11355924;26;20005;-74
2024/04/08 16:24:19;;;;;;;2.40;2.20;;;;;;;18.84;100.00;100370.41;11356330;26;20459;-74
2024/04/08 16:29:20;;;;;;;2.45;2.25;;;;;;;18.85;100.00;100367.38;11355298;26;19998;-74
2024/04/08 16:34:21;;;;;;;2.42;2.22;;;;;;;18.87;100.00;100372.63;11353379;26;19998;-73
2024/04/08 16:39:21;;;;;;;18.42;3.05;;;;;;;18.96;100.00;100363.63;11352363;26;20310;-74
2024/04/08 16:44:21;;;;;;;2.00;1.90;;;;;;;18.99;100.00;100365.81;11353647;26;19998;-73
2024/04/08 16:49:25;;;;;;;7.00;2.60;;;;;;;18.99;98.61;100365.00;11352707;26;20343;-74
2024/04/08 16:54:27;;;;;;;8.10;2.45;;;;;;;18.89;100.00;100356.69;11353928;26;20006;-74
2024/04/08 16:59:28;;;;;;;10.68;3.58;;;;;;;18.81;100.00;100345.13;11351132;26;20323;-74
2024/04/08 17:04:28;;;;;;;5.15;2.35;;;;;;;18.92;100.00;100343.28;11320150;26;20013;-75
2024/04/08 17:09:29;;;;;;;2.53;2.33;;;;;;;18.91;100.00;100338.06;11350437;26;20314;-75
2024/04/08 17:14:30;;;;;;;7.53;3.17;;;;;;;18.99;100.00;100340.31;11350135;26;20099;-74
2024/04/08 17:19:30;;;;;;;7.65;3.30;;;;;;;18.94;100.00;100332.03;11352549;26;20038;-75
2024/04/08 17:24:30;;;;;;;9.15;2.83;;;;;;;18.93;100.00;100325.72;11352633;26;20037;-74
2024/04/08 17:29:31;;;;;;;2.72;2.20;;;;;;;18.84;100.00;100323.75;11352461;26;20014;-76
2024/04/08 17:34:31;;;;;;;9.07;2.75;;;;;;;18.83;100.00;100311.16;11350478;26;20005;-75
2024/04/08 17:39:33;;;;;;;4.90;2.50;;;;;;;18.77;100.00;100300.13;11352604;26;20399;-74
2024/04/08 17:44:33;;;;;;;5.28;3.13;;;;;;;18.67;100.00;100293.75;11351909;26;20053;-74
2024/04/08 17:49:34;;;;;;;4.07;2.53;;;;;;;18.47;100.00;100288.97;11320523;26;20022;-74
2024/04/08 17:54:34;;;;;;;11.10;4.47;;;;;;;18.39;100.00;100279.31;11352688;26;20229;-74
2024/04/08 17:59:35;;;;;;;4.47;2.95;;;;;;;18.31;100.00;100279.81;11350475;26;20069;-74
2024/04/08 18:04:35;;;;;;;11.30;4.35;;;;;;;18.12;100.00;100273.91;11351435;26;20008;-75
2024/04/08 18:09:35;;;;;;;3.50;2.80;;;;;;;18.02;100.00;100268.38;11350922;26;20424;-74
2024/04/08 18:14:36;;;;;;;9.93;3.10;;;;;;;17.90;100.00;100265.84;11356451;26;20005;-73
2024/04/08 18:19:36;;;;;;;6.03;3.22;;;;;;;17.84;100.00;100270.44;11376527;26;20005;-73
2024/04/08 18:24:37;;;;;;;10.93;4.15;;;;;;;17.74;100.00;100264.84;11375472;26;20034;-74
2024/04/08 18:29:37;;;;;;;9.45;3.00;;;;;;;17.63;100.00;100269.38;11367135;26;20071;-74
2024/04/08 18:34:38;;;;;;;8.43;4.03;;;;;;;17.58;100.00;100269.34;11350934;26;20481;-75
2024/04/08 18:39:38;;;;;;;3.67;3.40;;;;;;;17.44;100.00;100254.41;11350059;26;20105;-74
2024/04/08 18:44:39;;;;;;;5.75;2.85;;;;;;;17.34;100.00;100249.66;11349944;26;20505;-77
2024/04/08 18:49:40;;;;;;;9.25;3.45;;;;;;;17.40;100.00;100256.03;11348290;26;20030;-77
2024/04/08 18:54:43;;;;;;;3.15;2.95;;;;;;;17.40;100.00;100258.75;11378805;26;20046;-76
2024/04/08 18:59:43;;;;;;;6.15;3.35;;;;;;;17.36;100.00;100261.19;11350443;26;20472;-78
2024/04/08 19:04:43;;;;;;;4.25;3.95;;;;;;;17.36;100.00;100257.63;11348340;26;20014;-79
2024/04/08 19:09:44;;;;;;;5.63;4.32;;;;;;;17.42;100.00;100260.16;11393647;26;20016;-79
2024/04/08 19:14:45;;;;;;;5.20;4.10;;;;;;;17.50;100.00;100258.84;11425042;25;20008;-77
2024/04/08 19:19:46;;;;;;;7.75;5.00;;;;;;;17.62;100.00;100261.44;11392476;26;20008;-77
2024/04/08 19:24:46;;;;;;;9.50;4.95;;;;;;;17.51;100.00;100260.50;11428648;26;20034;-77
2024/04/08 19:29:47;;;;;;;6.43;4.03;;;;;;;17.31;100.00;100257.56;11433398;25;20065;-76
2024/04/08 19:34:47;;;;;;;4.85;3.83;;;;;;;17.19;100.00;100252.25;11399772;26;20004;-77
2024/04/08 19:39:48;;;;;;;5.72;5.03;;;;;;;17.07;100.00;100259.75;11441966;25;19993;-75
2024/04/08 19:44:51;;;;;;;17.42;7.65;;;;;;;16.90;100.00;100244.25;11427466;25;19994;-77
2024/04/08 19:49:51;;;;;;;16.27;6.53;;;;;;;16.83;100.00;100227.22;11355998;26;20004;-75
2024/04/08 19:54:52;;;;;;;13.77;5.13;;;;;;;16.72;100.00;100219.97;11353858;26;20022;-77
2024/04/08 19:59:55;;;;;;;19.33;6.68;;;;;;;16.64;100.00;100221.22;11355713;26;19993;-75
2024/04/08 20:04:55;;;;;;;7.30;6.20;;;;;;;16.54;100.00;100209.34;11354868;26;20005;-76
2024/04/08 20:09:56;;;;;;;12.98;7.68;;;;;;;16.50;100.00;100218.03;11353247;26;20428;-75
2024/04/08 20:14:57;;;;;;;14.68;8.52;;;;;;;16.38;100.00;100197.38;11358217;26;19998;-76
2024/04/08 20:19:58;;;;;;;21.38;9.07;;;;;;;16.26;100.00;100195.56;11333537;26;20437;-77
2024/04/08 20:24:58;;;;;;;17.27;7.93;;;;;;;16.20;100.00;100206.69;11362499;26;19998;-76
2024/04/08 20:29:59;;;;;;;12.20;9.05;;;;;;;16.21;100.00;100213.81;11353390;26;20461;-77
2024/04/08 20:34:59;;;;;;;15.18;9.18;;;;;;;16.11;100.00;100202.72;11358691;26;20005;-76
2024/04/08 20:40:00;;;;;;;12.20;9.38;;;;;;;16.19;100.00;100189.47;11356990;26;20002;-73
2024/04/08 20:45:00;;;;;;;21.08;10.32;;;;;;;16.21;100.00;100197.44;11354793;26;20009;-79
2024/04/08 20:50:01;;;;;;;12.25;9.57;;;;;;;16.21;100.00;100191.97;11405553;26;20001;-75
2024/04/08 20:55:01;;;;;;;14.10;10.02;;;;;;;16.17;100.00;100196.25;11435194;26;19997;-74
2024/04/08 21:00:03;;;;;;;14.60;9.85;;;;;;;16.19;100.00;100181.28;11435833;26;20427;-73
2024/04/08 21:05:04;;;;;;;13.18;10.88;;;;;;;16.25;100.00;100171.25;11432031;26;20082;-77
2024/04/08 21:10:04;;;;;;;12.30;10.18;;;;;;;16.33;100.00;100162.59;11429461;26;20501;-73
2024/04/08 21:15:07;;;;;;;16.73;10.20;;;;;;;16.36;100.00;100164.81;11428035;25;20005;-77
2024/04/08 21:20:08;;;;;;;13.52;12.13;;;;;;;16.36;100.00;100147.59;11424981;26;20083;-75
2024/04/08 21:25:09;;;;;;;18.95;12.55;;;;;;;16.35;100.00;100143.25;11380652;25;19998;-74
2024/04/08 21:30:09;;;;;;;12.68;11.00;;;;;;;16.43;100.00;100140.03;11347308;26;20002;-73
2024/04/08 21:35:10;;;;;;;15.93;11.20;;;;;;;16.50;100.00;100143.44;11349506;26;20059;-73
2024/04/08 21:40:10;;;;;;;14.80;11.43;;;;;;;16.47;100.00;100136.56;11350103;26;19994;-73
2024/04/08 21:45:10;;;;;;;22.50;12.27;;;;;;;16.21;100.00;100127.22;11410866;25;19998;-74
2024/04/08 21:50:11;;;;;;;14.23;11.73;;;;;;;16.18;100.00;100135.09;11352239;26;20290;-73
2024/04/08 21:55:11;;;;;;;30.05;13.60;;;;;;;16.22;100.00;100130.78;11353393;26;20043;-79
2024/04/08 22:00:13;;;;;;;16.33;13.02;;;;;;;16.18;100.00;100247.09;11351805;26;19998;-75
2024/04/08 22:05:14;;;;;;;1.38;1.35;;;;;;;14.98;100.00;100252.63;11350228;26;19998;-77
2024/04/08 22:10:14;;;;;;;0.52;0.52;;;;;;;14.67;100.00;100272.16;11352179;26;20039;-72
2024/04/08 22:15:15;;;;;;;0.40;0.40;;;;;;;13.95;100.00;100268.59;11350543;26;19998;-73
2024/04/08 22:20:16;;;;;;;0.40;0.40;;;;;;;13.92;100.00;100230.16;11350635;26;20018;-73
2024/04/08 22:25:17;;;;;;;0.40;0.40;;;;;;;13.98;100.00;100155.72;11351196;26;20006;-77
2024/04/08 22:30:17;;;;;;;0.77;0.77;;;;;;;13.98;100.00;100169.31;11349732;26;19994;-74
2024/04/08 22:35:19;;;;;;;0.40;0.40;;;;;;;13.89;100.00;100152.50;11351030;26;20010;-74
2024/04/08 22:40:20;;;;;;;0.30;0.30;;;;;;;13.86;100.00;100165.75;11351538;26;20062;-74
2024/04/08 22:45:20;;;;;;;0.30;0.30;;;;;;;13.82;100.00;100187.19;11350046;26;20311;-73